createdAt,value
2018-03-22T00:00:07.646Z,88.10
2018-03-22T00:02:35.172Z,88.60
2018-03-22T00:05:02.666Z,89.50
2018-03-22T00:07:30.151Z,89.90
2018-03-22T00:09:57.658Z,89.20
2018-03-22T00:12:25.143Z,89.30
2018-03-22T00:14:53.426Z,88.90
2018-03-22T00:17:21.676Z,89.20
2018-03-22T00:19:49.198Z,89.10
2018-03-22T00:22:28.519Z,89.50
2018-03-22T00:24:56.035Z,90.00
2018-03-22T00:27:23.519Z,90.00
2018-03-22T00:29:51.020Z,90.00
2018-03-22T00:32:18.519Z,89.80
2018-03-22T00:34:46.767Z,90.20
2018-03-22T00:37:14.254Z,90.20
2018-03-22T00:39:42.514Z,89.90
2018-03-22T00:42:09.996Z,89.80
2018-03-22T00:44:37.503Z,89.70
2018-03-22T00:47:04.983Z,89.40
2018-03-22T00:49:32.470Z,89.00
2018-03-22T00:52:00.726Z,86.40
2018-03-22T00:54:28.974Z,85.30
2018-03-22T00:56:56.474Z,85.10
2018-03-22T00:59:24.718Z,82.60
2018-03-22T01:01:52.193Z,82.50
2018-03-22T01:04:20.598Z,80.60
2018-03-22T01:06:48.078Z,80.60
2018-03-22T01:09:15.559Z,77.70
2018-03-22T01:11:43.053Z,74.40
2018-03-22T01:14:11.303Z,70.90
2018-03-22T01:16:38.785Z,70.80
2018-03-22T01:19:07.050Z,68.50
2018-03-22T01:21:35.295Z,67.80
2018-03-22T01:24:02.770Z,67.80
2018-03-22T01:26:30.441Z,66.70
2018-03-22T01:28:59.707Z,66.30
2018-03-22T01:31:27.199Z,66.30
2018-03-22T01:33:55.512Z,66.00
2018-03-22T01:36:22.992Z,66.00
2018-03-22T01:38:50.470Z,65.60
2018-03-22T01:41:17.974Z,65.30
2018-03-22T01:43:45.456Z,65.80
2018-03-22T01:46:12.952Z,65.50
2018-03-22T01:48:40.444Z,66.20
2018-03-22T01:51:07.934Z,66.00
2018-03-22T01:53:35.415Z,66.10
2018-03-22T01:56:02.911Z,66.20
2018-03-22T01:58:30.393Z,67.00
2018-03-22T02:00:58.122Z,66.80
2018-03-22T02:03:26.366Z,67.00
2018-03-22T02:05:53.849Z,66.80
2018-03-22T02:08:22.121Z,65.70
2018-03-22T02:10:50.382Z,66.30
2018-03-22T02:13:17.868Z,66.20
2018-03-22T02:15:46.135Z,65.20
2018-03-22T02:18:14.385Z,64.40
2018-03-22T02:20:41.866Z,64.40
2018-03-22T02:23:10.245Z,64.30
2018-03-22T02:25:38.490Z,64.60
2018-03-22T02:28:05.974Z,64.60
2018-03-22T02:30:34.248Z,64.00
2018-03-22T02:33:02.495Z,64.00
2018-03-22T02:35:29.975Z,64.00
2018-03-22T02:37:57.483Z,64.20
2018-03-22T02:40:24.966Z,63.20
2018-03-22T02:42:53.221Z,62.60
2018-03-22T02:45:20.731Z,62.60
2018-03-22T02:47:48.974Z,62.00
2018-03-22T02:50:17.250Z,61.90
2018-03-22T02:52:44.754Z,61.80
2018-03-22T02:55:12.246Z,61.80
2018-03-22T02:57:39.762Z,61.70
2018-03-22T03:00:08.017Z,61.90
2018-03-22T03:02:35.503Z,61.80
2018-03-22T03:05:03.002Z,62.40
2018-03-22T03:07:30.478Z,61.20
2018-03-22T03:09:57.958Z,61.70
2018-03-22T03:12:26.229Z,61.00
2018-03-22T03:14:54.482Z,62.10
2018-03-22T03:17:21.994Z,61.90
2018-03-22T03:19:49.478Z,61.60
2018-03-22T03:22:17.962Z,61.70
2018-03-22T03:24:45.497Z,62.70
2018-03-22T03:27:12.978Z,62.80
2018-03-22T03:29:40.466Z,63.80
2018-03-22T03:32:07.978Z,64.80
2018-03-22T03:34:35.455Z,64.10
2018-03-22T03:37:02.931Z,64.20
2018-03-22T03:39:30.430Z,63.30
2018-03-22T03:41:57.923Z,63.70
2018-03-22T03:44:25.406Z,63.60
2018-03-22T03:46:52.906Z,62.70
2018-03-22T03:49:20.383Z,63.60
2018-03-22T03:51:47.899Z,64.80
2018-03-22T03:54:16.143Z,64.20
2018-03-22T03:56:43.621Z,64.10
2018-03-22T03:59:11.291Z,63.80
2018-03-22T04:01:39.534Z,64.40
2018-03-22T04:04:07.014Z,64.30
2018-03-22T04:06:34.514Z,64.20
2018-03-22T04:09:01.993Z,65.20
2018-03-22T04:11:29.473Z,64.10
2018-03-22T04:13:56.967Z,63.20
2018-03-22T04:16:25.204Z,63.70
2018-03-22T04:18:52.682Z,63.70
2018-03-22T04:21:20.957Z,64.20
2018-03-22T04:23:49.206Z,64.30
2018-03-22T04:26:16.683Z,64.30
2018-03-22T04:28:44.182Z,64.30
2018-03-22T04:31:11.662Z,64.10
2018-03-22T04:33:39.913Z,64.20
2018-03-22T04:36:07.422Z,64.20
2018-03-22T04:38:34.907Z,63.50
2018-03-22T04:41:03.159Z,63.40
2018-03-22T04:43:30.673Z,63.30
2018-03-22T04:45:58.162Z,63.60
2018-03-22T04:48:25.641Z,63.80
2018-03-22T04:50:54.118Z,62.00
2018-03-22T04:53:21.596Z,62.00
2018-03-22T04:55:49.074Z,61.70
2018-03-22T04:58:18.505Z,61.50
2018-03-22T05:00:45.979Z,61.80
2018-03-22T05:03:13.487Z,61.50
2018-03-22T05:05:40.963Z,61.80
2018-03-22T05:08:08.443Z,61.40
2018-03-22T05:10:35.930Z,61.20
2018-03-22T05:13:04.186Z,61.50
2018-03-22T05:15:31.657Z,61.40
2018-03-22T05:17:59.923Z,61.10
2018-03-22T05:20:27.419Z,61.10
2018-03-22T05:22:54.895Z,61.00
2018-03-22T05:25:22.395Z,60.50
2018-03-22T05:27:49.874Z,61.30
2018-03-22T05:30:18.114Z,60.20
2018-03-22T05:32:45.612Z,60.10
2018-03-22T05:35:13.858Z,61.00
2018-03-22T05:37:41.374Z,61.00
2018-03-22T05:40:08.882Z,60.60
2018-03-22T05:42:37.134Z,59.60
2018-03-22T05:45:04.615Z,59.60
2018-03-22T05:47:34.115Z,60.20
2018-03-22T05:50:02.375Z,60.00
2018-03-22T05:52:29.855Z,60.00
2018-03-22T05:54:58.123Z,61.40
2018-03-22T05:57:25.602Z,61.30
2018-03-22T05:59:53.847Z,59.10
2018-03-22T06:02:21.483Z,59.10
2018-03-22T06:04:48.959Z,58.80
2018-03-22T06:07:16.447Z,59.20
2018-03-22T06:09:44.722Z,58.70
2018-03-22T06:12:12.976Z,59.80
2018-03-22T06:14:40.462Z,60.30
2018-03-22T06:17:08.738Z,58.10
2018-03-22T06:19:36.286Z,58.10
2018-03-22T06:22:05.745Z,58.50
2018-03-22T06:24:33.256Z,58.90
2018-03-22T06:27:00.751Z,59.40
2018-03-22T06:29:28.226Z,60.00
2018-03-22T06:31:57.745Z,59.00
2018-03-22T06:34:25.241Z,59.50
2018-03-22T06:36:52.782Z,59.30
2018-03-22T06:39:21.215Z,60.30
2018-03-22T06:41:48.735Z,60.30
2018-03-22T06:44:16.222Z,61.10
2018-03-22T06:46:43.754Z,60.90
2018-03-22T06:49:11.237Z,60.10
2018-03-22T06:51:38.735Z,60.50
2018-03-22T06:54:06.344Z,60.30
2018-03-22T06:56:33.824Z,59.60
2018-03-22T06:59:01.315Z,60.30
2018-03-22T07:01:29.608Z,59.50
2018-03-22T07:03:57.863Z,58.20
2018-03-22T07:06:25.334Z,58.20
2018-03-22T07:08:53.599Z,58.60
2018-03-22T07:11:21.084Z,58.60
2018-03-22T07:13:48.594Z,58.60
2018-03-22T07:16:16.850Z,59.70
2018-03-22T07:18:44.338Z,60.00
2018-03-22T07:21:11.847Z,58.80
2018-03-22T07:23:39.342Z,59.90
2018-03-22T07:26:06.899Z,61.30
2018-03-22T07:28:34.467Z,62.90
2018-03-22T07:31:01.963Z,64.70
2018-03-22T07:33:29.465Z,65.90
2018-03-22T07:35:56.975Z,66.30
2018-03-22T07:38:24.457Z,66.40
2018-03-22T07:40:52.123Z,65.30
2018-03-22T07:43:25.246Z,64.90
2018-03-22T07:45:52.778Z,64.80
2018-03-22T07:48:20.290Z,64.60
2018-03-22T07:50:48.586Z,63.10
2018-03-22T07:53:16.111Z,63.10
2018-03-22T07:55:44.408Z,66.20
2018-03-22T07:58:11.950Z,66.20
2018-03-22T08:00:40.248Z,67.90
2018-03-22T08:03:08.587Z,67.90
2018-03-22T08:05:36.106Z,67.70
2018-03-22T08:08:03.634Z,69.00
2018-03-22T08:10:31.919Z,69.30
2018-03-22T08:12:59.450Z,69.20
2018-03-22T08:15:26.955Z,69.70
2018-03-22T08:17:54.448Z,70.40
2018-03-22T08:20:21.994Z,69.80
2018-03-22T08:22:49.502Z,69.80
2018-03-22T08:25:17.777Z,71.40
2018-03-22T08:27:45.325Z,71.40
2018-03-22T08:30:13.871Z,70.70
2018-03-22T08:32:41.367Z,70.60
2018-03-22T08:35:09.674Z,69.70
2018-03-22T08:37:37.200Z,69.70
2018-03-22T08:40:05.491Z,71.10
2018-03-22T08:42:33.008Z,71.10
2018-03-22T08:45:01.294Z,72.60
2018-03-22T08:47:28.817Z,72.50
2018-03-22T08:49:56.314Z,72.30
2018-03-22T08:52:23.822Z,71.60
2018-03-22T08:54:51.500Z,74.00
2018-03-22T08:57:18.946Z,73.30
2018-03-22T08:59:46.457Z,74.10
2018-03-22T09:02:14.882Z,74.50
2018-03-22T09:04:42.388Z,74.40
2018-03-22T09:07:10.638Z,75.10
2018-03-22T09:09:38.186Z,75.00
2018-03-22T09:12:05.746Z,74.50
2018-03-22T09:14:33.193Z,75.00
2018-03-22T09:17:00.800Z,74.90
2018-03-22T09:19:29.061Z,72.60
2018-03-22T09:21:56.742Z,72.50
2018-03-22T09:24:25.022Z,71.60
2018-03-22T09:26:59.006Z,70.40
2018-03-22T09:29:26.538Z,70.30
2018-03-22T09:31:54.034Z,71.30
2018-03-22T09:34:21.563Z,70.20
2018-03-22T09:36:49.056Z,69.10
2018-03-22T09:39:17.324Z,66.50
2018-03-22T09:41:44.834Z,66.40
2018-03-22T09:44:12.313Z,66.50
2018-03-22T09:46:39.830Z,69.00
2018-03-22T09:49:07.342Z,69.40
2018-03-22T09:51:34.852Z,69.40
2018-03-22T09:54:02.334Z,66.90
2018-03-22T09:56:30.622Z,68.20
2018-03-22T09:58:58.126Z,68.30
2018-03-22T10:01:25.632Z,71.50
2018-03-22T10:03:53.138Z,70.00
2018-03-22T10:06:20.627Z,71.00
2018-03-22T10:08:48.518Z,70.00
2018-03-22T10:11:16.063Z,70.20
2018-03-22T10:13:43.569Z,70.60
2018-03-22T10:16:11.842Z,71.80
2018-03-22T10:18:40.154Z,71.40
2018-03-22T10:21:07.651Z,71.20
2018-03-22T10:23:35.174Z,70.50
2018-03-22T10:26:02.701Z,69.20
2018-03-22T10:28:30.961Z,69.10
2018-03-22T10:30:58.460Z,69.10
2018-03-22T10:33:25.991Z,67.40
2018-03-22T10:35:54.297Z,68.30
2018-03-22T10:38:22.330Z,68.30
2018-03-22T10:40:50.639Z,68.80
2018-03-22T10:43:18.151Z,68.80
2018-03-22T10:45:45.659Z,68.10
2018-03-22T10:48:13.222Z,66.50
2018-03-22T10:50:40.717Z,67.60
2018-03-22T10:53:08.226Z,66.80
2018-03-22T10:55:35.739Z,68.30
2018-03-22T10:58:03.226Z,66.90
2018-03-22T11:00:36.781Z,67.30
2018-03-22T11:03:09.902Z,65.60
2018-03-22T11:05:38.169Z,65.60
2018-03-22T11:08:06.475Z,66.00
2018-03-22T11:10:34.003Z,65.90
2018-03-22T11:13:02.321Z,63.50
2018-03-22T11:15:29.807Z,63.50
2018-03-22T11:17:57.332Z,63.50
2018-03-22T11:20:24.831Z,63.70
2018-03-22T11:22:52.322Z,63.80
2018-03-22T11:25:20.616Z,64.50
2018-03-22T11:27:48.109Z,64.50
2018-03-22T11:30:15.608Z,63.70
2018-03-22T11:32:43.896Z,65.90
2018-03-22T11:35:11.383Z,65.90
2018-03-22T11:37:38.897Z,63.50
2018-03-22T11:40:07.167Z,67.60
2018-03-22T11:42:34.654Z,67.50
2018-03-22T11:45:02.183Z,66.40
2018-03-22T11:47:29.726Z,68.20
2018-03-22T11:49:57.236Z,67.60
2018-03-22T11:52:24.771Z,68.50
2018-03-22T11:54:53.057Z,68.90
2018-03-22T11:57:21.347Z,69.70
2018-03-22T11:59:48.874Z,69.70
2018-03-22T12:02:17.147Z,70.20
2018-03-22T12:04:45.441Z,71.60
2018-03-22T12:07:12.982Z,71.30
2018-03-22T12:09:40.467Z,71.50
2018-03-22T12:12:07.996Z,70.80
2018-03-22T12:14:35.483Z,70.20
2018-03-22T12:17:02.976Z,70.80
2018-03-22T12:19:30.505Z,71.90
2018-03-22T12:21:58.017Z,71.00
2018-03-22T12:24:25.867Z,71.70
2018-03-22T12:26:53.395Z,73.80
2018-03-22T12:29:20.904Z,73.40
2018-03-22T12:31:48.415Z,74.10
2018-03-22T12:34:16.846Z,73.60
2018-03-22T12:36:45.102Z,73.60
2018-03-22T12:39:12.620Z,73.60
2018-03-22T12:41:40.171Z,72.20
2018-03-22T12:44:07.938Z,73.90
2018-03-22T12:46:35.450Z,74.10
2018-03-22T12:49:02.958Z,76.00
2018-03-22T12:51:30.485Z,77.80
2018-03-22T12:53:58.750Z,78.00
2018-03-22T12:56:27.039Z,79.10
2018-03-22T12:58:55.313Z,81.20
2018-03-22T13:01:22.842Z,81.20
2018-03-22T13:03:50.355Z,82.50
2018-03-22T13:06:17.863Z,84.10
2018-03-22T13:08:45.390Z,85.10
2018-03-22T13:11:12.904Z,86.10
2018-03-22T13:13:41.178Z,87.00
2018-03-22T13:16:09.482Z,87.10
2018-03-22T13:18:36.993Z,87.10
2018-03-22T13:21:04.498Z,87.90
2018-03-22T13:23:32.030Z,88.90
2018-03-22T13:26:00.318Z,90.40
2018-03-22T13:28:27.851Z,90.40
2018-03-22T13:30:55.365Z,90.80
2018-03-22T13:33:22.866Z,90.50
2018-03-22T13:35:51.363Z,90.40
2018-03-22T13:38:18.846Z,90.40
2018-03-22T13:40:46.374Z,90.40
2018-03-22T13:43:14.649Z,90.20
2018-03-22T13:45:42.919Z,90.30
2018-03-22T13:48:11.187Z,89.50
2018-03-22T13:50:38.703Z,89.50
2018-03-22T13:53:06.221Z,88.80
2018-03-22T13:55:34.507Z,88.20
2018-03-22T13:58:02.010Z,88.20
2018-03-22T14:00:29.566Z,89.30
2018-03-22T14:02:57.098Z,89.40
2018-03-22T14:05:24.608Z,88.70
2018-03-22T14:07:52.147Z,89.00
2018-03-22T14:10:19.658Z,88.10
2018-03-22T14:12:47.161Z,89.40
2018-03-22T14:15:14.746Z,90.00
2018-03-22T14:17:42.229Z,90.20
2018-03-22T14:20:09.752Z,90.60
2018-03-22T14:22:37.276Z,90.60
2018-03-22T14:25:04.802Z,90.70
2018-03-22T14:27:32.334Z,90.60
2018-03-22T14:29:59.872Z,90.80
2018-03-22T14:32:27.375Z,90.20
2018-03-22T14:34:54.882Z,90.50
2018-03-22T14:37:22.484Z,90.40
2018-03-22T14:39:49.926Z,90.10
2018-03-22T14:42:17.423Z,90.20
2018-03-22T14:44:45.841Z,90.80
2018-03-22T14:47:14.132Z,90.40
2018-03-22T14:49:41.641Z,90.40
2018-03-22T14:52:09.163Z,90.10
2018-03-22T14:54:37.444Z,89.50
2018-03-22T14:57:04.948Z,89.50
2018-03-22T14:59:32.614Z,89.70
2018-03-22T15:02:00.111Z,89.50
2018-03-22T15:04:27.618Z,89.50
2018-03-22T15:06:55.128Z,89.80
2018-03-22T15:09:22.635Z,90.20
2018-03-22T15:11:50.134Z,90.30
2018-03-22T15:14:17.809Z,89.60
2018-03-22T15:16:46.099Z,90.50
2018-03-22T15:19:14.401Z,90.30
2018-03-22T15:21:41.948Z,90.30
2018-03-22T15:24:09.443Z,90.30
2018-03-22T15:26:36.928Z,90.10
2018-03-22T15:29:04.518Z,90.50
2018-03-22T15:31:32.014Z,90.80
2018-03-22T15:33:59.528Z,89.80
2018-03-22T15:36:27.022Z,90.10
2018-03-22T15:38:54.562Z,90.70
2018-03-22T15:41:22.237Z,91.00
2018-03-22T15:43:49.741Z,91.20
2018-03-22T15:46:18.939Z,91.70
2018-03-22T15:48:47.245Z,91.50
2018-03-22T15:51:14.750Z,91.50
2018-03-22T15:53:42.290Z,91.60
2018-03-22T15:56:09.806Z,91.70
2018-03-22T15:58:37.327Z,91.80
2018-03-22T16:01:05.145Z,91.90
2018-03-22T16:03:32.699Z,92.00
2018-03-22T16:06:00.249Z,91.80
2018-03-22T16:08:27.769Z,92.20
2018-03-22T16:10:56.111Z,91.80
2018-03-22T16:13:23.639Z,91.80
2018-03-22T16:15:51.933Z,91.80
2018-03-22T16:18:19.466Z,91.80
2018-03-22T16:20:47.731Z,92.00
2018-03-22T16:23:15.447Z,91.90
2018-03-22T16:25:43.024Z,92.10
2018-03-22T16:28:10.488Z,92.20
2018-03-22T16:30:37.994Z,92.40
2018-03-22T16:33:05.497Z,92.60
2018-03-22T16:35:33.001Z,92.80
2018-03-22T16:38:01.311Z,93.20
2018-03-22T16:40:28.843Z,93.20
2018-03-22T16:42:56.372Z,93.30
2018-03-22T16:45:24.663Z,93.20
2018-03-22T16:47:52.921Z,93.30
2018-03-22T16:50:20.453Z,93.30
2018-03-22T16:52:47.976Z,93.30
2018-03-22T16:55:15.502Z,93.40
2018-03-22T16:57:44.002Z,93.30
2018-03-22T17:00:11.498Z,93.30
2018-03-22T17:02:38.979Z,93.40
2018-03-22T17:05:06.498Z,93.50
2018-03-22T17:07:34.379Z,93.30
2018-03-22T17:10:01.879Z,93.30
2018-03-22T17:12:29.386Z,93.00
2018-03-22T17:14:56.894Z,93.60
2018-03-22T17:17:24.427Z,93.30
2018-03-22T17:19:52.747Z,93.30
2018-03-22T17:22:21.034Z,93.00
2018-03-22T17:24:49.297Z,93.20
2018-03-22T17:27:17.582Z,93.30
2018-03-22T17:29:45.091Z,93.30
2018-03-22T17:32:12.619Z,93.20
2018-03-22T17:34:40.175Z,93.20
2018-03-22T17:37:07.669Z,93.30
2018-03-22T17:39:35.202Z,93.30
2018-03-22T17:42:02.875Z,93.50
2018-03-22T17:44:30.409Z,93.50
2018-03-22T17:46:57.937Z,93.40
2018-03-22T17:49:25.710Z,93.30
2018-03-22T17:51:53.226Z,93.40
2018-03-22T17:54:21.300Z,93.40
2018-03-22T17:56:48.864Z,93.40
2018-03-22T17:59:17.167Z,93.40
2018-03-22T18:01:44.722Z,93.40
2018-03-22T18:04:13.025Z,93.60
2018-03-22T18:06:40.522Z,93.60
2018-03-22T18:09:08.151Z,93.70
2018-03-22T18:11:35.831Z,93.50
2018-03-22T18:14:03.339Z,93.50
2018-03-22T18:16:31.855Z,93.60
2018-03-22T18:18:59.392Z,93.50
2018-03-22T18:21:26.906Z,93.60
2018-03-22T18:23:55.188Z,93.70
2018-03-22T18:26:22.718Z,93.60
2018-03-22T18:28:51.252Z,93.80
2018-03-22T18:31:20.202Z,93.90
2018-03-22T18:33:47.728Z,93.90
2018-03-22T18:36:15.292Z,93.90
2018-03-22T18:38:42.777Z,94.10
2018-03-22T18:41:10.794Z,94.20
2018-03-22T18:43:39.078Z,94.50
2018-03-22T18:46:06.611Z,94.50
2018-03-22T18:48:34.155Z,94.40
2018-03-22T18:51:01.677Z,94.60
2018-03-22T18:53:29.206Z,94.50
2018-03-22T18:55:56.742Z,94.40
2018-03-22T18:58:24.239Z,94.60
2018-03-22T19:00:51.741Z,94.80
2018-03-22T19:03:19.250Z,94.80
2018-03-22T19:05:46.754Z,94.80
2018-03-22T19:08:15.774Z,95.20
2018-03-22T19:10:44.039Z,95.00
2018-03-22T19:13:11.522Z,94.70
2018-03-22T19:15:39.182Z,94.90
2018-03-22T19:18:06.686Z,94.80
2018-03-22T19:20:34.182Z,94.80
2018-03-22T19:23:02.505Z,94.90
2018-03-22T19:25:29.994Z,94.90
2018-03-22T19:27:57.493Z,94.80
2018-03-22T19:30:25.010Z,94.80
2018-03-22T19:32:52.528Z,95.10
2018-03-22T19:35:20.039Z,94.80
2018-03-22T19:37:47.557Z,94.80
2018-03-22T19:40:15.052Z,94.90
2018-03-22T19:42:42.546Z,94.80
2018-03-22T19:45:10.070Z,94.90
2018-03-22T19:47:37.587Z,95.00
2018-03-22T19:50:05.082Z,95.10
2018-03-22T19:52:32.595Z,95.30
2018-03-22T19:55:00.096Z,94.90
2018-03-22T19:57:27.595Z,94.90
2018-03-22T19:59:55.146Z,94.80
2018-03-22T20:02:22.666Z,94.80
2018-03-22T20:04:50.162Z,94.80
2018-03-22T20:07:17.725Z,94.90
2018-03-22T20:09:45.225Z,95.00
2018-03-22T20:12:12.718Z,94.90
2018-03-22T20:14:41.202Z,94.90
2018-03-22T20:17:09.486Z,94.70
2018-03-22T20:19:36.995Z,94.70
2018-03-22T20:22:04.498Z,94.70
2018-03-22T20:24:31.996Z,94.70
2018-03-22T20:26:59.502Z,94.70
2018-03-22T20:29:27.814Z,94.70
2018-03-22T20:31:55.299Z,94.70
2018-03-22T20:34:22.804Z,94.50
2018-03-22T20:36:51.088Z,94.60
2018-03-22T20:39:18.594Z,94.60
2018-03-22T20:41:46.098Z,94.70
2018-03-22T20:44:13.618Z,94.80
2018-03-22T20:46:41.125Z,94.50
2018-03-22T20:49:08.630Z,94.70
2018-03-22T20:51:36.159Z,94.70
2018-03-22T20:54:03.653Z,94.70
2018-03-22T20:56:31.153Z,94.70
2018-03-22T20:58:58.678Z,94.70
2018-03-22T21:01:26.174Z,94.70
2018-03-22T21:03:53.719Z,94.80
2018-03-22T21:06:21.206Z,94.70
2018-03-22T21:08:48.719Z,95.00
2018-03-22T21:11:16.990Z,94.80
2018-03-22T21:13:44.529Z,94.80
2018-03-22T21:16:12.060Z,94.80
2018-03-22T21:18:39.550Z,94.80
2018-03-22T21:21:07.070Z,94.80
2018-03-22T21:23:34.571Z,94.80
2018-03-22T21:26:02.104Z,94.90
2018-03-22T21:28:29.630Z,94.80
2018-03-22T21:30:57.128Z,94.90
2018-03-22T21:33:25.402Z,95.10
2018-03-22T21:35:52.911Z,95.30
2018-03-22T21:38:20.435Z,95.00
2018-03-22T21:40:47.941Z,95.00
2018-03-22T21:43:15.462Z,95.10
2018-03-22T21:45:43.723Z,95.20
2018-03-22T21:48:11.224Z,95.60
2018-03-22T21:50:50.534Z,95.10
2018-03-22T21:53:18.806Z,95.20
2018-03-22T21:55:46.310Z,95.20
2018-03-22T21:58:13.841Z,95.20
2018-03-22T22:00:41.342Z,95.20
2018-03-22T22:03:08.838Z,95.30
2018-03-22T22:05:37.260Z,95.20
2018-03-22T22:08:04.749Z,95.20
2018-03-22T22:10:32.252Z,95.10
2018-03-22T22:12:59.779Z,95.10
2018-03-22T22:15:27.299Z,95.10
2018-03-22T22:17:54.821Z,95.10
2018-03-22T22:20:22.332Z,95.10
2018-03-22T22:22:50.607Z,95.20
2018-03-22T22:25:18.105Z,95.20
2018-03-22T22:27:46.711Z,95.20
2018-03-22T22:30:14.213Z,95.10
2018-03-22T22:32:42.525Z,95.20
2018-03-22T22:35:10.003Z,95.40
2018-03-22T22:37:37.490Z,95.20
2018-03-22T22:40:05.766Z,95.30
2018-03-22T22:42:33.278Z,95.30
2018-03-22T22:45:01.555Z,95.40
2018-03-22T22:47:29.839Z,95.40
2018-03-22T22:49:57.331Z,95.40
2018-03-22T22:52:24.834Z,95.40
2018-03-22T22:54:53.136Z,95.50
2018-03-22T22:57:20.643Z,95.40
2018-03-22T22:59:48.141Z,95.40
2018-03-22T23:02:15.683Z,95.40
2018-03-22T23:04:43.939Z,95.30
2018-03-22T23:07:11.431Z,95.30
2018-03-22T23:09:38.966Z,95.20
2018-03-22T23:12:07.322Z,95.20
2018-03-22T23:14:34.816Z,95.00
2018-03-22T23:17:03.103Z,95.40
2018-03-22T23:19:30.602Z,95.00
2018-03-22T23:21:58.107Z,95.10
2018-03-22T23:24:25.646Z,95.00
2018-03-22T23:26:53.139Z,95.00
2018-03-22T23:29:20.634Z,95.00
2018-03-22T23:31:48.158Z,95.10
2018-03-22T23:34:15.686Z,95.00
2018-03-22T23:36:43.150Z,95.00
2018-03-22T23:39:11.441Z,95.00
2018-03-22T23:41:38.934Z,95.10
2018-03-22T23:44:06.464Z,95.10
2018-03-22T23:46:33.966Z,95.10
2018-03-22T23:49:01.533Z,95.20
2018-03-22T23:51:29.071Z,95.20
2018-03-22T23:53:56.562Z,95.20
2018-03-22T23:56:24.056Z,95.30
2018-03-22T23:58:51.582Z,95.30
